Portada
METAR-TAF:

METAR-TAF

Aeroports :

Aeroport Internacional de Pequín

Pequín, Xina

latitud: 39-56N, longitud: 116-17E, altitud: 55 m

Observació

L'informe es va fer fa 13 minuts, a les 21:00 UTC
Vent 8 kt del Nord
Temperatura 24°C
Humitat 94%
Pressió 1007 hPa
Visibilitat 10 km o més
sense núvols per sota de 1500 mi sense presència de cumulonimbus.

METAR: ZBAA 142100Z 35004MPS CAVOK 24/23 Q1007 NOSIG

Hora: 05:13 (21:13 UTC)

Pronòstic

L'informe es va fer fa 5 hores i 53 minuts, a les 15:20 UTC
Pronòstic vàlid del 14 a les 18 UTC al 15 a les 18 UTC
Vent 8 kt del Sud-Est
Visibilitat: 6000 m

TAF: ZBAA 141520Z 1418/1518 14004MPS 6000 NSC TX31/1507Z TN23/1421Z

Observacions i pronòstics meteorològics de més de 4000 aeroports (METAR i TAF).

Les estacions disponibles són els punts grocs i vermells al mapa.

Posi el ratolí al punt desitjat per veure el nom de l'estació.

Feu clic per veure les observacions i els pronòstics meteorològics.

Per canviar el mapa: feu clic els botons verds amb una creu de color negre per apropar; al botó verd amb un guió per allunyar la imatge; o en les fletxes verdes per a mapes adjacents.


METAR-TAF: